createdAt,value
2022-10-11T00:29:48.155Z,2.00
2022-10-11T00:35:42.561Z,2.03
2022-10-11T00:38:32.118Z,2.10
2022-10-11T00:41:22.920Z,1.70
2022-10-11T00:44:15.978Z,2.33
2022-10-11T00:47:18.058Z,1.90
2022-10-11T00:50:09.038Z,2.20
2022-10-11T00:53:15.569Z,2.47
2022-10-11T00:56:12.191Z,2.40
2022-10-11T01:02:20.622Z,2.10
2022-10-11T01:05:30.300Z,2.33
2022-10-11T01:08:22.715Z,2.60
2022-10-11T01:11:23.766Z,2.73
2022-10-11T01:14:22.268Z,2.20
2022-10-11T01:17:17.870Z,2.60
2022-10-11T01:20:33.731Z,2.97
2022-10-11T01:23:33.026Z,2.50
2022-10-11T01:26:36.980Z,2.47
2022-10-11T01:29:32.538Z,1.90
2022-10-11T01:32:28.195Z,1.90
2022-10-11T01:35:23.115Z,2.37
2022-10-11T01:38:16.108Z,2.60
2022-10-11T01:41:21.922Z,2.50
2022-10-11T01:44:12.335Z,1.93
2022-10-11T01:47:02.429Z,2.83
2022-10-11T01:49:57.278Z,2.07
2022-10-11T01:52:48.212Z,1.97
2022-10-11T01:55:49.427Z,2.60
2022-10-11T01:58:49.136Z,2.30
2022-10-11T02:01:49.666Z,3.03
2022-10-11T02:04:47.316Z,2.10
2022-10-11T02:07:45.944Z,2.27
2022-10-11T02:10:36.657Z,2.10
2022-10-11T02:13:28.142Z,1.90
2022-10-11T02:16:37.902Z,2.17
2022-10-11T02:19:28.451Z,2.37
2022-10-11T02:22:20.495Z,1.83
2022-10-11T02:25:14.895Z,2.20
2022-10-11T02:28:08.640Z,1.90
2022-10-11T02:30:58.743Z,2.50
2022-10-11T02:33:54.661Z,2.70
2022-10-11T02:36:50.048Z,2.40
2022-10-11T02:42:48.647Z,3.27
2022-10-11T02:48:49.860Z,2.30
2022-10-11T02:51:40.556Z,2.53
2022-10-11T02:54:38.970Z,3.30
2022-10-11T02:57:28.399Z,2.57
2022-10-11T03:00:23.872Z,2.00
2022-10-11T03:03:18.275Z,3.03
2022-10-11T03:06:10.280Z,2.67
2022-10-11T03:09:03.362Z,2.70
2022-10-11T03:11:59.841Z,2.57
2022-10-11T03:14:49.633Z,2.40
2022-10-11T03:17:48.171Z,2.50
2022-10-11T03:20:37.242Z,2.77
2022-10-11T03:23:29.515Z,2.10
2022-10-11T03:26:19.701Z,2.40
2022-10-11T03:29:15.531Z,2.40
2022-10-11T03:32:18.105Z,2.33
2022-10-11T03:35:14.042Z,2.97
2022-10-11T03:38:04.525Z,3.53
2022-10-11T03:40:57.220Z,3.33
2022-10-11T03:43:49.726Z,3.83
2022-10-11T03:46:40.531Z,3.03
2022-10-11T03:49:30.356Z,3.33
2022-10-11T03:52:24.138Z,3.43
2022-10-11T03:55:13.302Z,3.37
2022-10-11T03:58:13.288Z,3.40
2022-10-11T04:01:02.447Z,3.73
2022-10-11T04:03:52.128Z,2.30
2022-10-11T04:06:42.962Z,2.70
2022-10-11T04:09:40.582Z,2.33
2022-10-11T04:12:31.358Z,2.87
2022-10-11T04:15:21.331Z,2.90
2022-10-11T04:18:10.295Z,2.43
2022-10-11T04:21:03.189Z,3.47
2022-10-11T04:23:52.951Z,2.67
2022-10-11T04:26:47.561Z,3.13
2022-10-11T04:29:37.222Z,2.80
2022-10-11T04:32:26.401Z,2.53
2022-10-11T04:35:15.351Z,3.20
2022-10-11T04:38:06.036Z,2.70
2022-10-11T04:41:02.577Z,3.00
2022-10-11T04:43:55.151Z,3.40
2022-10-11T04:46:47.775Z,2.60
2022-10-11T04:49:38.675Z,3.07
2022-10-11T04:52:29.412Z,3.47
2022-10-11T04:55:20.068Z,3.57
2022-10-11T04:58:23.389Z,2.73
2022-10-11T05:01:14.253Z,3.03
2022-10-11T05:04:12.140Z,2.67
2022-10-11T05:07:04.639Z,3.10
2022-10-11T05:09:54.292Z,3.10
2022-10-11T05:12:45.242Z,2.73
2022-10-11T05:15:36.511Z,2.63
2022-10-11T05:18:35.059Z,3.33
2022-10-11T05:21:29.937Z,3.23
2022-10-11T05:24:36.307Z,2.57
2022-10-11T05:27:26.340Z,2.80
2022-10-11T05:30:15.202Z,2.83
2022-10-11T05:33:04.400Z,3.10
2022-10-11T05:36:09.768Z,2.57
2022-10-11T05:39:04.287Z,3.00
2022-10-11T05:42:08.961Z,2.97
2022-10-11T05:45:06.168Z,3.00
2022-10-11T05:47:57.238Z,3.40
2022-10-11T05:50:47.215Z,3.03
2022-10-11T05:56:51.615Z,3.13
2022-10-11T05:59:54.952Z,3.10
2022-10-11T06:02:47.512Z,3.40
2022-10-11T06:08:52.730Z,3.63
2022-10-11T06:12:05.287Z,3.23
2022-10-11T06:15:15.241Z,2.90
2022-10-11T06:21:17.438Z,2.80
2022-10-11T06:24:10.221Z,2.90
2022-10-11T06:27:04.791Z,3.57
2022-10-11T06:30:01.895Z,3.00
2022-10-11T06:32:52.451Z,3.17
2022-10-11T06:35:55.239Z,3.07
2022-10-11T06:38:49.869Z,3.27
2022-10-11T06:41:42.254Z,2.80
2022-10-11T06:44:46.653Z,2.40
2022-10-11T06:47:51.255Z,3.87
2022-10-11T06:50:59.657Z,3.17
2022-10-11T06:53:51.971Z,2.53
2022-10-11T06:56:42.667Z,3.30
2022-10-11T06:59:32.344Z,2.70
2022-10-11T07:02:35.309Z,3.00
2022-10-11T07:08:30.242Z,2.50
2022-10-11T07:11:27.675Z,2.80
2022-10-11T07:14:34.532Z,3.43
2022-10-11T07:17:29.115Z,3.50
2022-10-11T07:20:26.437Z,3.07
2022-10-11T07:23:31.910Z,3.10
2022-10-11T07:26:24.911Z,2.77
2022-10-11T07:29:15.028Z,2.73
2022-10-11T07:32:06.149Z,2.70
2022-10-11T07:35:02.295Z,3.00
2022-10-11T07:41:09.302Z,2.67
2022-10-11T07:44:17.995Z,3.37
2022-10-11T07:47:27.001Z,2.93
2022-10-11T07:56:50.889Z,3.10
2022-10-11T07:59:55.825Z,3.07
2022-10-11T08:02:45.895Z,2.70
2022-10-11T08:05:46.994Z,2.47
2022-10-11T08:08:51.916Z,2.53
2022-10-11T08:11:41.849Z,2.53
2022-10-11T08:18:14.282Z,3.23
2022-10-11T08:21:15.780Z,3.30
2022-10-11T08:24:20.060Z,2.90
2022-10-11T08:27:16.390Z,3.00
2022-10-11T08:30:07.895Z,3.00
2022-10-11T08:33:08.274Z,2.80
2022-10-11T08:36:12.071Z,2.90
2022-10-11T08:42:08.945Z,3.30
2022-10-11T08:45:15.677Z,2.50
2022-10-11T08:48:21.173Z,2.70
2022-10-11T08:54:34.514Z,2.90
2022-10-11T08:57:32.787Z,2.60
2022-10-11T09:00:28.453Z,2.20
2022-10-11T09:03:32.191Z,2.67
2022-10-11T09:10:07.653Z,2.60
2022-10-11T09:13:09.276Z,3.10
2022-10-11T09:16:10.987Z,2.10
2022-10-11T09:19:10.613Z,2.07
2022-10-11T09:22:24.741Z,3.13
2022-10-11T09:29:10.331Z,2.47
2022-10-11T09:32:11.515Z,2.30
2022-10-11T09:38:41.062Z,2.67
2022-10-11T09:44:57.712Z,2.20
2022-10-11T09:47:46.651Z,2.23
2022-10-11T09:54:08.537Z,2.00
2022-10-11T09:57:07.248Z,2.27
2022-10-11T10:00:24.708Z,2.27
2022-10-11T10:03:33.257Z,2.40
2022-10-11T10:06:39.255Z,2.57
2022-10-11T10:09:43.960Z,1.80
2022-10-11T10:12:38.022Z,2.17
2022-10-11T10:15:36.322Z,2.30
2022-10-11T10:21:33.345Z,2.63
2022-10-11T10:24:30.500Z,2.67
2022-10-11T10:27:26.543Z,1.97
2022-10-11T10:30:17.282Z,2.07
2022-10-11T10:33:12.498Z,1.73
2022-10-11T10:36:09.347Z,2.50
2022-10-11T10:39:10.699Z,2.53
2022-10-11T10:42:00.456Z,1.73
2022-10-11T10:48:00.475Z,1.90
2022-10-11T10:50:58.713Z,2.10
2022-10-11T10:54:04.113Z,2.00
2022-10-11T11:00:14.766Z,2.00
2022-10-11T11:03:07.985Z,1.60
2022-10-11T11:06:02.964Z,1.90
2022-10-11T11:09:10.749Z,2.30
2022-10-11T11:12:26.101Z,2.40
2022-10-11T11:15:32.497Z,1.90
2022-10-11T11:18:30.863Z,2.80
2022-10-11T11:21:32.545Z,1.90
2022-10-11T11:24:40.138Z,1.90
2022-10-11T11:27:39.542Z,1.87
2022-10-11T11:30:39.155Z,1.87
2022-10-11T11:33:48.839Z,2.67
2022-10-11T11:36:54.294Z,2.07
2022-10-11T11:39:52.580Z,2.03
2022-10-11T11:46:02.467Z,1.73
2022-10-11T11:48:57.191Z,1.90
2022-10-11T11:55:20.712Z,1.90
2022-10-11T11:58:17.501Z,2.13
2022-10-11T12:01:11.400Z,2.17
2022-10-11T12:04:05.384Z,2.60
2022-10-11T12:07:18.005Z,2.10
2022-10-11T12:13:32.235Z,2.40
2022-10-11T12:16:29.707Z,2.20
2022-10-11T12:19:34.159Z,2.07
2022-10-11T12:22:44.284Z,1.90
2022-10-11T12:25:51.441Z,1.77
2022-10-11T12:28:54.280Z,1.60
2022-10-11T12:31:51.408Z,1.87
2022-10-11T12:41:00.463Z,2.63
2022-10-11T12:44:11.473Z,1.93
2022-10-11T12:47:13.319Z,1.60
2022-10-11T12:50:11.210Z,2.13
2022-10-11T12:53:07.625Z,1.90
2022-10-11T12:56:02.688Z,1.93
2022-10-11T12:58:53.027Z,2.00
2022-10-11T13:01:58.216Z,1.77
2022-10-11T13:04:50.900Z,1.77
2022-10-11T13:07:45.216Z,2.10
2022-10-11T13:10:41.118Z,1.70
2022-10-11T13:13:41.455Z,2.00
2022-10-11T13:16:32.008Z,2.20
2022-10-11T13:19:31.227Z,1.70
2022-10-11T13:22:23.409Z,2.17
2022-10-11T13:25:30.349Z,1.50
2022-10-11T13:28:21.911Z,1.83
2022-10-11T13:31:12.933Z,1.63
2022-10-11T13:34:06.791Z,2.70
2022-10-11T13:37:02.464Z,2.17
2022-10-11T13:43:10.841Z,1.80
2022-10-11T13:46:02.162Z,1.97
2022-10-11T13:52:23.602Z,2.10
2022-10-11T13:55:37.725Z,1.90
2022-10-11T13:58:32.085Z,1.80
2022-10-11T14:01:36.784Z,1.40
2022-10-11T17:10:45.832Z,2.63
2022-10-11T17:16:46.731Z,2.40
2022-10-11T17:19:35.989Z,2.93
2022-10-11T17:22:31.403Z,2.43
2022-10-11T17:25:21.994Z,2.60
2022-10-11T17:28:10.799Z,2.33
2022-10-11T17:31:00.248Z,2.47
2022-10-11T17:33:56.713Z,2.50
2022-10-11T17:36:47.249Z,2.30
2022-10-11T17:39:38.006Z,2.77
2022-10-11T17:42:42.275Z,2.60
2022-10-11T17:45:32.795Z,2.40
2022-10-11T17:48:22.478Z,2.60
2022-10-11T17:51:16.558Z,3.30
2022-10-11T17:57:08.948Z,3.13
2022-10-11T17:59:58.282Z,2.73
2022-10-11T18:03:01.051Z,3.33
2022-10-11T18:05:50.014Z,3.00
2022-10-11T18:08:45.206Z,2.50
2022-10-11T18:11:37.738Z,2.80
2022-10-11T18:14:27.372Z,3.20
2022-10-11T18:17:17.423Z,2.80
2022-10-11T18:20:08.879Z,2.70
2022-10-11T18:22:58.541Z,3.23
2022-10-11T18:25:50.639Z,2.80
2022-10-11T18:28:41.458Z,3.10
2022-10-11T18:31:31.267Z,4.00
2022-10-11T18:34:22.403Z,3.10
2022-10-11T18:37:11.864Z,3.63
2022-10-11T18:40:02.076Z,3.20
2022-10-11T18:42:53.883Z,3.40
2022-10-11T18:45:43.910Z,3.67
2022-10-11T18:48:42.096Z,3.50
2022-10-11T18:51:31.852Z,3.43
2022-10-11T18:54:24.239Z,4.30
2022-10-11T18:57:14.061Z,3.87
2022-10-11T19:00:22.465Z,4.13
2022-10-11T19:03:14.373Z,4.20
2022-10-11T19:06:04.970Z,4.53
2022-10-11T19:08:55.285Z,4.40
2022-10-11T19:11:44.173Z,4.33
2022-10-11T19:17:37.751Z,5.03
2022-10-11T19:20:26.763Z,4.70
2022-10-11T19:23:15.704Z,4.03
2022-10-11T19:26:05.705Z,4.63
2022-10-11T19:28:57.443Z,5.07
2022-10-11T19:31:47.720Z,4.30
2022-10-11T19:34:38.469Z,4.43
2022-10-11T19:37:27.260Z,5.03
2022-10-11T19:40:15.950Z,5.10
2022-10-11T19:43:06.623Z,4.40
2022-10-11T19:46:01.063Z,4.80
2022-10-11T19:48:50.573Z,4.87
2022-10-11T19:51:41.003Z,4.70
2022-10-11T19:54:30.297Z,5.20
2022-10-11T19:57:19.182Z,5.20
2022-10-11T20:00:12.534Z,4.80
2022-10-11T20:03:05.822Z,5.17
2022-10-11T20:05:57.129Z,5.50
2022-10-11T20:09:10.408Z,5.50
2022-10-11T20:12:00.328Z,5.30
2022-10-11T20:14:49.445Z,5.90
2022-10-11T20:17:50.776Z,5.97
2022-10-11T20:20:40.432Z,6.53
2022-10-11T20:23:29.991Z,6.63
2022-10-11T20:26:22.388Z,5.37
2022-10-11T20:29:12.038Z,6.47
2022-10-11T20:32:01.284Z,6.33
2022-10-11T20:34:50.054Z,6.60
2022-10-11T20:37:40.008Z,6.23
2022-10-11T20:40:29.701Z,6.03
2022-10-11T20:43:20.437Z,7.63
2022-10-11T20:46:12.670Z,6.43
2022-10-11T20:49:13.265Z,7.17
2022-10-11T20:52:02.669Z,7.33
2022-10-11T20:54:52.935Z,9.23
2022-10-11T20:57:42.043Z,8.63
2022-10-11T21:00:34.318Z,8.37
2022-10-11T21:03:23.551Z,7.80
2022-10-11T21:06:13.703Z,7.60
2022-10-11T21:09:04.597Z,8.20
2022-10-11T21:11:56.783Z,9.47
2022-10-11T21:14:50.735Z,9.47
2022-10-11T21:17:41.335Z,8.03
2022-10-11T21:20:30.490Z,8.40
2022-10-11T21:23:27.167Z,8.23
2022-10-11T21:26:18.522Z,8.30
2022-10-11T21:29:10.675Z,8.40
2022-10-11T21:32:10.818Z,7.77
2022-10-11T21:35:07.810Z,8.03
2022-10-11T21:38:04.514Z,7.67
2022-10-11T21:54:59.681Z,8.50
